sensor_id;sensor_type;location;lat;lon;timestamp;P1;durP1;ratioP1;P2;durP2;ratioP2
81510;SDS011;70931;48.796;8.440;2023-12-20T00:00:56;2.13;;;0.60;;
81510;SDS011;70931;48.796;8.440;2023-12-20T00:03:21;1.50;;;0.70;;
81510;SDS011;70931;48.796;8.440;2023-12-20T00:05:47;1.90;;;0.70;;
81510;SDS011;70931;48.796;8.440;2023-12-20T00:08:12;1.45;;;0.75;;
81510;SDS011;70931;48.796;8.440;2023-12-20T00:10:38;1.07;;;0.60;;
81510;SDS011;70931;48.796;8.440;2023-12-20T00:13:03;2.23;;;0.80;;
81510;SDS011;70931;48.796;8.440;2023-12-20T00:15:28;1.67;;;0.80;;
81510;SDS011;70931;48.796;8.440;2023-12-20T00:17:54;1.47;;;0.80;;
81510;SDS011;70931;48.796;8.440;2023-12-20T00:20:19;1.87;;;0.73;;
81510;SDS011;70931;48.796;8.440;2023-12-20T00:22:44;1.77;;;0.77;;
81510;SDS011;70931;48.796;8.440;2023-12-20T00:25:09;1.63;;;0.70;;
81510;SDS011;70931;48.796;8.440;2023-12-20T00:27:34;2.03;;;0.80;;
81510;SDS011;70931;48.796;8.440;2023-12-20T00:30:00;0.93;;;0.50;;
81510;SDS011;70931;48.796;8.440;2023-12-20T00:32:25;1.33;;;0.73;;
81510;SDS011;70931;48.796;8.440;2023-12-20T00:34:50;2.97;;;0.80;;
81510;SDS011;70931;48.796;8.440;2023-12-20T00:37:15;2.60;;;0.77;;
81510;SDS011;70931;48.796;8.440;2023-12-20T00:39:40;2.17;;;0.90;;
81510;SDS011;70931;48.796;8.440;2023-12-20T00:42:06;1.37;;;0.80;;
81510;SDS011;70931;48.796;8.440;2023-12-20T00:44:31;2.50;;;0.87;;
81510;SDS011;70931;48.796;8.440;2023-12-20T00:46:57;1.67;;;0.80;;
81510;SDS011;70931;48.796;8.440;2023-12-20T00:49:22;1.73;;;0.70;;
81510;SDS011;70931;48.796;8.440;2023-12-20T00:51:47;1.30;;;0.80;;
81510;SDS011;70931;48.796;8.440;2023-12-20T00:54:12;0.87;;;0.50;;
81510;SDS011;70931;48.796;8.440;2023-12-20T00:56:38;2.90;;;0.73;;
81510;SDS011;70931;48.796;8.440;2023-12-20T00:59:03;0.97;;;0.60;;
81510;SDS011;70931;48.796;8.440;2023-12-20T01:01:28;2.03;;;0.70;;
81510;SDS011;70931;48.796;8.440;2023-12-20T01:03:53;2.00;;;0.80;;
81510;SDS011;70931;48.796;8.440;2023-12-20T01:06:18;1.07;;;0.60;;
81510;SDS011;70931;48.796;8.440;2023-12-20T01:08:44;0.83;;;0.60;;
81510;SDS011;70931;48.796;8.440;2023-12-20T01:11:10;1.25;;;0.80;;
81510;SDS011;70931;48.796;8.440;2023-12-20T01:13:35;1.25;;;0.80;;
81510;SDS011;70931;48.796;8.440;2023-12-20T01:16:00;1.33;;;0.70;;
81510;SDS011;70931;48.796;8.440;2023-12-20T01:18:26;1.10;;;0.70;;
81510;SDS011;70931;48.796;8.440;2023-12-20T01:20:51;1.27;;;0.63;;
81510;SDS011;70931;48.796;8.440;2023-12-20T01:23:16;1.60;;;0.67;;
81510;SDS011;70931;48.796;8.440;2023-12-20T01:25:41;1.80;;;0.83;;
81510;SDS011;70931;48.796;8.440;2023-12-20T01:28:06;1.17;;;0.60;;
81510;SDS011;70931;48.796;8.440;2023-12-20T01:30:32;3.00;;;0.80;;
81510;SDS011;70931;48.796;8.440;2023-12-20T01:32:57;1.70;;;0.80;;
81510;SDS011;70931;48.796;8.440;2023-12-20T01:35:23;2.97;;;0.80;;
81510;SDS011;70931;48.796;8.440;2023-12-20T01:37:48;1.73;;;0.70;;
81510;SDS011;70931;48.796;8.440;2023-12-20T01:40:13;1.73;;;0.83;;
81510;SDS011;70931;48.796;8.440;2023-12-20T01:42:38;3.60;;;1.00;;
81510;SDS011;70931;48.796;8.440;2023-12-20T01:45:04;1.90;;;0.80;;
81510;SDS011;70931;48.796;8.440;2023-12-20T01:47:29;1.75;;;0.90;;
81510;SDS011;70931;48.796;8.440;2023-12-20T01:49:55;1.52;;;0.65;;
81510;SDS011;70931;48.796;8.440;2023-12-20T01:52:20;1.27;;;0.80;;
81510;SDS011;70931;48.796;8.440;2023-12-20T01:54:45;0.80;;;0.50;;
81510;SDS011;70931;48.796;8.440;2023-12-20T01:57:13;1.00;;;0.73;;
81510;SDS011;70931;48.796;8.440;2023-12-20T01:59:39;1.52;;;0.80;;
81510;SDS011;70931;48.796;8.440;2023-12-20T02:02:05;2.47;;;0.77;;
81510;SDS011;70931;48.796;8.440;2023-12-20T02:04:30;1.70;;;0.80;;
81510;SDS011;70931;48.796;8.440;2023-12-20T02:06:56;1.85;;;0.85;;
81510;SDS011;70931;48.796;8.440;2023-12-20T02:09:22;1.92;;;0.90;;
81510;SDS011;70931;48.796;8.440;2023-12-20T02:11:47;1.25;;;0.60;;
81510;SDS011;70931;48.796;8.440;2023-12-20T02:14:13;1.03;;;0.60;;
81510;SDS011;70931;48.796;8.440;2023-12-20T02:16:38;1.80;;;0.70;;
81510;SDS011;70931;48.796;8.440;2023-12-20T02:19:04;1.07;;;0.60;;
81510;SDS011;70931;48.796;8.440;2023-12-20T02:21:35;2.22;;;0.70;;
81510;SDS011;70931;48.796;8.440;2023-12-20T02:24:00;3.43;;;0.93;;
81510;SDS011;70931;48.796;8.440;2023-12-20T02:26:26;2.00;;;0.90;;
81510;SDS011;70931;48.796;8.440;2023-12-20T02:28:51;1.90;;;0.95;;
81510;SDS011;70931;48.796;8.440;2023-12-20T02:31:20;1.58;;;0.70;;
81510;SDS011;70931;48.796;8.440;2023-12-20T02:33:46;1.58;;;0.82;;
81510;SDS011;70931;48.796;8.440;2023-12-20T02:36:11;1.47;;;0.73;;
81510;SDS011;70931;48.796;8.440;2023-12-20T02:38:36;0.70;;;0.50;;
81510;SDS011;70931;48.796;8.440;2023-12-20T02:41:01;1.23;;;0.60;;
81510;SDS011;70931;48.796;8.440;2023-12-20T02:43:27;1.27;;;0.57;;
81510;SDS011;70931;48.796;8.440;2023-12-20T02:45:52;1.57;;;0.67;;
81510;SDS011;70931;48.796;8.440;2023-12-20T02:48:17;1.40;;;0.70;;
81510;SDS011;70931;48.796;8.440;2023-12-20T02:50:43;1.70;;;0.60;;
81510;SDS011;70931;48.796;8.440;2023-12-20T02:53:08;0.83;;;0.60;;
81510;SDS011;70931;48.796;8.440;2023-12-20T02:55:33;0.57;;;0.50;;
81510;SDS011;70931;48.796;8.440;2023-12-20T02:57:58;1.33;;;0.70;;
81510;SDS011;70931;48.796;8.440;2023-12-20T03:00:23;0.90;;;0.53;;
81510;SDS011;70931;48.796;8.440;2023-12-20T03:02:49;0.90;;;0.50;;
81510;SDS011;70931;48.796;8.440;2023-12-20T03:05:14;2.27;;;0.50;;
81510;SDS011;70931;48.796;8.440;2023-12-20T03:07:39;2.10;;;0.90;;
81510;SDS011;70931;48.796;8.440;2023-12-20T03:10:05;1.23;;;0.70;;
81510;SDS011;70931;48.796;8.440;2023-12-20T03:12:30;2.42;;;0.80;;
81510;SDS011;70931;48.796;8.440;2023-12-20T03:14:55;1.33;;;0.80;;
81510;SDS011;70931;48.796;8.440;2023-12-20T03:17:21;2.07;;;0.80;;
81510;SDS011;70931;48.796;8.440;2023-12-20T03:19:46;1.20;;;0.57;;
81510;SDS011;70931;48.796;8.440;2023-12-20T03:22:11;1.60;;;0.73;;
81510;SDS011;70931;48.796;8.440;2023-12-20T03:24:36;1.53;;;0.70;;
81510;SDS011;70931;48.796;8.440;2023-12-20T03:27:02;1.13;;;0.60;;
81510;SDS011;70931;48.796;8.440;2023-12-20T03:29:27;1.97;;;0.60;;
81510;SDS011;70931;48.796;8.440;2023-12-20T03:31:52;0.70;;;0.60;;
81510;SDS011;70931;48.796;8.440;2023-12-20T03:34:17;1.60;;;0.70;;
81510;SDS011;70931;48.796;8.440;2023-12-20T03:36:43;1.43;;;0.60;;
81510;SDS011;70931;48.796;8.440;2023-12-20T03:39:08;1.42;;;0.60;;
81510;SDS011;70931;48.796;8.440;2023-12-20T03:41:34;2.50;;;0.77;;
81510;SDS011;70931;48.796;8.440;2023-12-20T03:43:59;1.10;;;0.70;;
81510;SDS011;70931;48.796;8.440;2023-12-20T03:46:24;1.87;;;0.80;;
81510;SDS011;70931;48.796;8.440;2023-12-20T03:48:49;1.37;;;0.70;;
81510;SDS011;70931;48.796;8.440;2023-12-20T03:51:15;1.87;;;0.70;;
81510;SDS011;70931;48.796;8.440;2023-12-20T03:53:40;0.70;;;0.50;;
81510;SDS011;70931;48.796;8.440;2023-12-20T03:56:05;0.73;;;0.40;;
81510;SDS011;70931;48.796;8.440;2023-12-20T03:58:31;2.28;;;0.90;;
81510;SDS011;70931;48.796;8.440;2023-12-20T04:00:56;1.23;;;0.70;;
81510;SDS011;70931;48.796;8.440;2023-12-20T04:03:21;1.70;;;0.80;;
81510;SDS011;70931;48.796;8.440;2023-12-20T04:05:47;2.33;;;0.98;;
81510;SDS011;70931;48.796;8.440;2023-12-20T04:08:12;1.73;;;0.60;;
81510;SDS011;70931;48.796;8.440;2023-12-20T04:10:37;1.53;;;0.70;;
81510;SDS011;70931;48.796;8.440;2023-12-20T04:13:03;0.37;;;0.30;;
81510;SDS011;70931;48.796;8.440;2023-12-20T04:15:28;1.27;;;0.50;;
81510;SDS011;70931;48.796;8.440;2023-12-20T04:17:54;1.37;;;0.70;;
81510;SDS011;70931;48.796;8.440;2023-12-20T04:20:19;1.50;;;0.60;;
81510;SDS011;70931;48.796;8.440;2023-12-20T04:22:44;1.10;;;0.60;;
81510;SDS011;70931;48.796;8.440;2023-12-20T04:25:09;1.03;;;0.70;;
81510;SDS011;70931;48.796;8.440;2023-12-20T04:27:34;1.93;;;0.87;;
81510;SDS011;70931;48.796;8.440;2023-12-20T04:30:00;2.10;;;1.00;;
81510;SDS011;70931;48.796;8.440;2023-12-20T04:32:25;1.30;;;0.80;;
81510;SDS011;70931;48.796;8.440;2023-12-20T04:34:50;2.33;;;1.00;;
81510;SDS011;70931;48.796;8.440;2023-12-20T04:37:16;2.43;;;0.90;;
81510;SDS011;70931;48.796;8.440;2023-12-20T04:39:41;2.63;;;1.00;;
81510;SDS011;70931;48.796;8.440;2023-12-20T04:42:06;1.77;;;0.73;;
81510;SDS011;70931;48.796;8.440;2023-12-20T04:44:31;2.57;;;1.00;;
81510;SDS011;70931;48.796;8.440;2023-12-20T04:46:56;2.47;;;1.07;;
81510;SDS011;70931;48.796;8.440;2023-12-20T04:49:22;2.20;;;1.07;;
81510;SDS011;70931;48.796;8.440;2023-12-20T04:51:47;2.30;;;1.00;;
81510;SDS011;70931;48.796;8.440;2023-12-20T04:54:12;2.63;;;0.90;;
81510;SDS011;70931;48.796;8.440;2023-12-20T04:56:37;2.70;;;1.20;;
81510;SDS011;70931;48.796;8.440;2023-12-20T04:59:03;2.42;;;1.02;;
81510;SDS011;70931;48.796;8.440;2023-12-20T05:01:28;2.73;;;1.00;;
81510;SDS011;70931;48.796;8.440;2023-12-20T05:03:53;3.00;;;1.00;;
81510;SDS011;70931;48.796;8.440;2023-12-20T05:06:18;2.90;;;1.03;;
81510;SDS011;70931;48.796;8.440;2023-12-20T05:08:44;3.43;;;1.20;;
81510;SDS011;70931;48.796;8.440;2023-12-20T05:11:09;2.77;;;1.30;;
81510;SDS011;70931;48.796;8.440;2023-12-20T05:13:34;2.80;;;1.20;;
81510;SDS011;70931;48.796;8.440;2023-12-20T05:15:59;2.93;;;1.13;;
81510;SDS011;70931;48.796;8.440;2023-12-20T05:18:24;3.00;;;1.20;;
81510;SDS011;70931;48.796;8.440;2023-12-20T05:20:50;4.57;;;1.20;;
81510;SDS011;70931;48.796;8.440;2023-12-20T05:23:16;4.00;;;1.10;;
81510;SDS011;70931;48.796;8.440;2023-12-20T05:25:41;4.07;;;1.43;;
81510;SDS011;70931;48.796;8.440;2023-12-20T05:28:07;3.73;;;1.20;;
81510;SDS011;70931;48.796;8.440;2023-12-20T05:30:32;3.73;;;1.30;;
81510;SDS011;70931;48.796;8.440;2023-12-20T05:32:57;3.47;;;1.20;;
81510;SDS011;70931;48.796;8.440;2023-12-20T05:35:22;3.77;;;1.20;;
81510;SDS011;70931;48.796;8.440;2023-12-20T05:37:47;2.73;;;1.20;;
81510;SDS011;70931;48.796;8.440;2023-12-20T05:40:13;1.67;;;0.90;;
81510;SDS011;70931;48.796;8.440;2023-12-20T05:42:38;4.10;;;1.33;;
81510;SDS011;70931;48.796;8.440;2023-12-20T05:45:04;3.90;;;1.70;;
81510;SDS011;70931;48.796;8.440;2023-12-20T05:47:30;3.65;;;1.65;;
81510;SDS011;70931;48.796;8.440;2023-12-20T05:49:55;3.20;;;1.33;;
81510;SDS011;70931;48.796;8.440;2023-12-20T05:52:20;3.80;;;1.30;;
81510;SDS011;70931;48.796;8.440;2023-12-20T05:54:45;5.07;;;1.70;;
81510;SDS011;70931;48.796;8.440;2023-12-20T05:57:11;4.60;;;1.80;;
81510;SDS011;70931;48.796;8.440;2023-12-20T05:59:36;3.03;;;1.33;;
81510;SDS011;70931;48.796;8.440;2023-12-20T06:02:02;4.63;;;1.80;;
81510;SDS011;70931;48.796;8.440;2023-12-20T06:04:28;3.78;;;1.75;;
81510;SDS011;70931;48.796;8.440;2023-12-20T06:06:54;3.67;;;1.40;;
81510;SDS011;70931;48.796;8.440;2023-12-20T06:09:19;4.00;;;1.57;;
81510;SDS011;70931;48.796;8.440;2023-12-20T06:11:44;5.00;;;1.83;;
81510;SDS011;70931;48.796;8.440;2023-12-20T06:14:09;3.93;;;1.40;;
81510;SDS011;70931;48.796;8.440;2023-12-20T06:16:34;3.87;;;1.47;;
81510;SDS011;70931;48.796;8.440;2023-12-20T06:19:00;5.57;;;2.30;;
81510;SDS011;70931;48.796;8.440;2023-12-20T06:21:25;4.83;;;1.93;;
81510;SDS011;70931;48.796;8.440;2023-12-20T06:23:50;4.17;;;1.73;;
81510;SDS011;70931;48.796;8.440;2023-12-20T06:26:15;6.23;;;2.30;;
81510;SDS011;70931;48.796;8.440;2023-12-20T06:28:41;5.90;;;2.60;;
81510;SDS011;70931;48.796;8.440;2023-12-20T06:31:06;4.70;;;2.03;;
81510;SDS011;70931;48.796;8.440;2023-12-20T06:33:31;5.90;;;2.30;;
81510;SDS011;70931;48.796;8.440;2023-12-20T06:35:57;6.30;;;2.43;;
81510;SDS011;70931;48.796;8.440;2023-12-20T06:38:22;5.50;;;2.50;;
81510;SDS011;70931;48.796;8.440;2023-12-20T06:40:48;6.15;;;2.60;;
81510;SDS011;70931;48.796;8.440;2023-12-20T06:43:13;6.00;;;2.60;;
81510;SDS011;70931;48.796;8.440;2023-12-20T06:45:38;7.63;;;3.08;;
81510;SDS011;70931;48.796;8.440;2023-12-20T06:48:04;6.70;;;2.93;;
81510;SDS011;70931;48.796;8.440;2023-12-20T06:50:30;6.88;;;2.85;;
81510;SDS011;70931;48.796;8.440;2023-12-20T06:52:55;5.93;;;3.23;;
81510;SDS011;70931;48.796;8.440;2023-12-20T06:55:20;6.47;;;3.13;;
81510;SDS011;70931;48.796;8.440;2023-12-20T06:57:45;7.50;;;3.30;;
81510;SDS011;70931;48.796;8.440;2023-12-20T07:00:11;9.33;;;3.30;;
81510;SDS011;70931;48.796;8.440;2023-12-20T07:02:36;7.47;;;3.35;;
81510;SDS011;70931;48.796;8.440;2023-12-20T07:05:02;7.33;;;3.30;;
81510;SDS011;70931;48.796;8.440;2023-12-20T07:07:27;8.27;;;3.87;;
81510;SDS011;70931;48.796;8.440;2023-12-20T07:09:52;6.60;;;3.07;;
81510;SDS011;70931;48.796;8.440;2023-12-20T07:12:17;8.47;;;3.67;;
81510;SDS011;70931;48.796;8.440;2023-12-20T07:14:42;7.03;;;3.33;;
81510;SDS011;70931;48.796;8.440;2023-12-20T07:17:08;7.03;;;3.17;;
81510;SDS011;70931;48.796;8.440;2023-12-20T07:19:33;6.13;;;2.87;;
81510;SDS011;70931;48.796;8.440;2023-12-20T07:21:58;6.93;;;3.50;;
81510;SDS011;70931;48.796;8.440;2023-12-20T07:24:23;6.77;;;2.93;;
81510;SDS011;70931;48.796;8.440;2023-12-20T07:26:49;7.57;;;3.63;;
81510;SDS011;70931;48.796;8.440;2023-12-20T07:29:14;6.63;;;3.07;;
81510;SDS011;70931;48.796;8.440;2023-12-20T07:31:39;6.80;;;3.63;;
81510;SDS011;70931;48.796;8.440;2023-12-20T07:34:04;7.70;;;3.03;;
81510;SDS011;70931;48.796;8.440;2023-12-20T07:36:29;7.57;;;3.33;;
81510;SDS011;70931;48.796;8.440;2023-12-20T07:38:55;7.97;;;3.30;;
81510;SDS011;70931;48.796;8.440;2023-12-20T07:41:20;6.67;;;2.63;;
81510;SDS011;70931;48.796;8.440;2023-12-20T07:43:45;6.40;;;2.93;;
81510;SDS011;70931;48.796;8.440;2023-12-20T07:46:10;7.67;;;3.10;;
81510;SDS011;70931;48.796;8.440;2023-12-20T07:48:35;6.63;;;3.13;;
81510;SDS011;70931;48.796;8.440;2023-12-20T07:51:01;7.77;;;3.03;;
81510;SDS011;70931;48.796;8.440;2023-12-20T07:53:27;8.82;;;2.80;;
81510;SDS011;70931;48.796;8.440;2023-12-20T07:55:52;5.83;;;3.20;;
81510;SDS011;70931;48.796;8.440;2023-12-20T07:58:18;5.85;;;2.95;;
81510;SDS011;70931;48.796;8.440;2023-12-20T08:00:43;7.88;;;2.97;;
81510;SDS011;70931;48.796;8.440;2023-12-20T08:03:08;7.60;;;3.20;;
81510;SDS011;70931;48.796;8.440;2023-12-20T08:05:33;12.03;;;3.70;;
81510;SDS011;70931;48.796;8.440;2023-12-20T08:07:59;6.63;;;2.97;;
81510;SDS011;70931;48.796;8.440;2023-12-20T08:10:24;6.07;;;2.80;;
81510;SDS011;70931;48.796;8.440;2023-12-20T08:12:49;6.27;;;2.80;;
81510;SDS011;70931;48.796;8.440;2023-12-20T08:15:14;7.57;;;3.37;;
81510;SDS011;70931;48.796;8.440;2023-12-20T08:17:40;9.13;;;3.13;;
81510;SDS011;70931;48.796;8.440;2023-12-20T08:20:05;7.77;;;2.53;;
81510;SDS011;70931;48.796;8.440;2023-12-20T08:22:31;6.70;;;2.67;;
81510;SDS011;70931;48.796;8.440;2023-12-20T08:24:56;6.17;;;2.20;;
81510;SDS011;70931;48.796;8.440;2023-12-20T08:27:21;7.67;;;2.30;;
81510;SDS011;70931;48.796;8.440;2023-12-20T08:29:46;7.20;;;2.10;;
81510;SDS011;70931;48.796;8.440;2023-12-20T08:32:12;5.63;;;2.30;;
81510;SDS011;70931;48.796;8.440;2023-12-20T08:34:37;8.40;;;2.00;;
81510;SDS011;70931;48.796;8.440;2023-12-20T08:37:02;9.10;;;2.50;;
81510;SDS011;70931;48.796;8.440;2023-12-20T08:39:27;5.38;;;2.35;;
81510;SDS011;70931;48.796;8.440;2023-12-20T08:41:53;6.00;;;2.20;;
81510;SDS011;70931;48.796;8.440;2023-12-20T08:44:18;7.23;;;2.53;;
81510;SDS011;70931;48.796;8.440;2023-12-20T08:46:43;6.70;;;2.30;;
81510;SDS011;70931;48.796;8.440;2023-12-20T08:49:08;6.93;;;2.27;;
81510;SDS011;70931;48.796;8.440;2023-12-20T08:51:34;9.10;;;2.50;;
81510;SDS011;70931;48.796;8.440;2023-12-20T08:53:59;7.17;;;2.00;;
81510;SDS011;70931;48.796;8.440;2023-12-20T08:56:24;5.63;;;2.00;;
81510;SDS011;70931;48.796;8.440;2023-12-20T08:58:49;5.67;;;2.10;;
81510;SDS011;70931;48.796;8.440;2023-12-20T09:01:14;6.40;;;2.27;;
81510;SDS011;70931;48.796;8.440;2023-12-20T09:03:40;5.13;;;2.50;;
81510;SDS011;70931;48.796;8.440;2023-12-20T09:06:05;5.90;;;2.47;;
81510;SDS011;70931;48.796;8.440;2023-12-20T09:08:31;5.53;;;1.95;;
81510;SDS011;70931;48.796;8.440;2023-12-20T09:10:56;4.27;;;1.83;;
81510;SDS011;70931;48.796;8.440;2023-12-20T09:13:21;6.43;;;2.07;;
81510;SDS011;70931;48.796;8.440;2023-12-20T09:15:46;7.70;;;2.37;;
81510;SDS011;70931;48.796;8.440;2023-12-20T09:18:12;6.83;;;2.43;;
81510;SDS011;70931;48.796;8.440;2023-12-20T09:20:37;7.63;;;2.63;;
81510;SDS011;70931;48.796;8.440;2023-12-20T09:23:02;9.07;;;3.30;;
81510;SDS011;70931;48.796;8.440;2023-12-20T09:25:28;7.43;;;2.10;;
81510;SDS011;70931;48.796;8.440;2023-12-20T09:27:53;5.93;;;2.30;;
81510;SDS011;70931;48.796;8.440;2023-12-20T09:30:18;8.70;;;2.13;;
81510;SDS011;70931;48.796;8.440;2023-12-20T09:32:44;5.72;;;2.38;;
81510;SDS011;70931;48.796;8.440;2023-12-20T09:35:10;5.68;;;1.80;;
81510;SDS011;70931;48.796;8.440;2023-12-20T09:37:35;5.73;;;2.53;;
81510;SDS011;70931;48.796;8.440;2023-12-20T09:40:00;8.37;;;2.43;;
81510;SDS011;70931;48.796;8.440;2023-12-20T09:42:31;8.47;;;2.23;;
81510;SDS011;70931;48.796;8.440;2023-12-20T09:44:59;9.05;;;2.47;;
81510;SDS011;70931;48.796;8.440;2023-12-20T09:47:26;6.38;;;2.72;;
81510;SDS011;70931;48.796;8.440;2023-12-20T09:49:52;8.03;;;2.70;;
81510;SDS011;70931;48.796;8.440;2023-12-20T09:52:18;9.55;;;3.65;;
81510;SDS011;70931;48.796;8.440;2023-12-20T09:54:44;7.68;;;2.38;;
81510;SDS011;70931;48.796;8.440;2023-12-20T09:57:13;8.90;;;2.85;;
81510;SDS011;70931;48.796;8.440;2023-12-20T09:59:38;3.90;;;1.73;;
81510;SDS011;70931;48.796;8.440;2023-12-20T10:02:03;8.43;;;2.80;;
81510;SDS011;70931;48.796;8.440;2023-12-20T10:04:34;7.13;;;2.65;;
81510;SDS011;70931;48.796;8.440;2023-12-20T10:07:01;7.22;;;2.08;;
81510;SDS011;70931;48.796;8.440;2023-12-20T10:09:27;5.60;;;2.33;;
81510;SDS011;70931;48.796;8.440;2023-12-20T10:11:54;5.50;;;2.90;;
81510;SDS011;70931;48.796;8.440;2023-12-20T10:14:20;5.57;;;2.30;;
81510;SDS011;70931;48.796;8.440;2023-12-20T10:16:46;6.45;;;2.30;;
81510;SDS011;70931;48.796;8.440;2023-12-20T10:19:11;6.77;;;2.33;;
81510;SDS011;70931;48.796;8.440;2023-12-20T10:21:37;8.27;;;2.50;;
81510;SDS011;70931;48.796;8.440;2023-12-20T10:24:02;7.17;;;2.40;;
81510;SDS011;70931;48.796;8.440;2023-12-20T10:26:27;4.25;;;1.83;;
81510;SDS011;70931;48.796;8.440;2023-12-20T10:28:53;6.77;;;2.17;;
81510;SDS011;70931;48.796;8.440;2023-12-20T10:31:29;5.88;;;2.28;;
81510;SDS011;70931;48.796;8.440;2023-12-20T10:33:59;6.03;;;2.22;;
81510;SDS011;70931;48.796;8.440;2023-12-20T10:36:26;6.22;;;2.55;;
81510;SDS011;70931;48.796;8.440;2023-12-20T10:38:53;6.95;;;2.17;;
81510;SDS011;70931;48.796;8.440;2023-12-20T10:41:22;6.57;;;2.50;;
81510;SDS011;70931;48.796;8.440;2023-12-20T10:43:52;10.32;;;2.50;;
81510;SDS011;70931;48.796;8.440;2023-12-20T10:46:22;7.90;;;2.58;;
81510;SDS011;70931;48.796;8.440;2023-12-20T10:48:48;7.15;;;2.30;;
81510;SDS011;70931;48.796;8.440;2023-12-20T10:51:17;8.40;;;2.63;;
81510;SDS011;70931;48.796;8.440;2023-12-20T10:53:43;7.55;;;2.20;;
81510;SDS011;70931;48.796;8.440;2023-12-20T10:56:09;4.70;;;2.35;;
81510;SDS011;70931;48.796;8.440;2023-12-20T10:58:40;9.45;;;2.70;;
81510;SDS011;70931;48.796;8.440;2023-12-20T11:01:06;8.38;;;2.28;;
81510;SDS011;70931;48.796;8.440;2023-12-20T11:03:34;7.53;;;2.55;;
81510;SDS011;70931;48.796;8.440;2023-12-20T11:06:46;6.97;;;2.00;;
81510;SDS011;70931;48.796;8.440;2023-12-20T11:09:19;6.10;;;1.88;;
81510;SDS011;70931;48.796;8.440;2023-12-20T11:14:20;5.97;;;1.60;;
81510;SDS011;70931;48.796;8.440;2023-12-20T11:16:50;9.40;;;2.10;;
81510;SDS011;70931;48.796;8.440;2023-12-20T11:19:15;5.33;;;1.70;;
81510;SDS011;70931;48.796;8.440;2023-12-20T11:21:41;7.22;;;1.77;;
81510;SDS011;70931;48.796;8.440;2023-12-20T11:24:07;4.83;;;1.90;;
81510;SDS011;70931;48.796;8.440;2023-12-20T11:26:32;6.03;;;1.83;;
81510;SDS011;70931;48.796;8.440;2023-12-20T11:31:59;6.47;;;1.60;;
81510;SDS011;70931;48.796;8.440;2023-12-20T11:34:28;3.75;;;1.63;;
81510;SDS011;70931;48.796;8.440;2023-12-20T11:36:57;4.30;;;1.52;;
81510;SDS011;70931;48.796;8.440;2023-12-20T11:39:23;7.47;;;1.73;;
81510;SDS011;70931;48.796;8.440;2023-12-20T11:41:51;4.47;;;1.55;;
81510;SDS011;70931;48.796;8.440;2023-12-20T11:44:17;3.63;;;1.70;;
81510;SDS011;70931;48.796;8.440;2023-12-20T11:46:42;7.30;;;1.80;;
81510;SDS011;70931;48.796;8.440;2023-12-20T11:49:09;6.47;;;2.13;;
81510;SDS011;70931;48.796;8.440;2023-12-20T11:51:34;4.97;;;1.40;;
81510;SDS011;70931;48.796;8.440;2023-12-20T11:53:59;5.77;;;1.60;;
81510;SDS011;70931;48.796;8.440;2023-12-20T11:56:24;6.27;;;1.30;;
81510;SDS011;70931;48.796;8.440;2023-12-20T11:58:50;7.87;;;1.73;;
81510;SDS011;70931;48.796;8.440;2023-12-20T12:01:15;5.23;;;1.63;;
81510;SDS011;70931;48.796;8.440;2023-12-20T12:03:40;3.70;;;1.47;;
81510;SDS011;70931;48.796;8.440;2023-12-20T12:06:05;3.77;;;1.20;;
81510;SDS011;70931;48.796;8.440;2023-12-20T12:08:31;4.17;;;1.17;;
81510;SDS011;70931;48.796;8.440;2023-12-20T12:10:56;4.73;;;1.50;;
81510;SDS011;70931;48.796;8.440;2023-12-20T12:13:21;5.53;;;1.70;;
81510;SDS011;70931;48.796;8.440;2023-12-20T12:15:47;4.93;;;1.13;;
81510;SDS011;70931;48.796;8.440;2023-12-20T12:18:15;7.82;;;1.73;;
81510;SDS011;70931;48.796;8.440;2023-12-20T12:20:41;6.07;;;1.48;;
81510;SDS011;70931;48.796;8.440;2023-12-20T12:23:06;5.03;;;1.50;;
81510;SDS011;70931;48.796;8.440;2023-12-20T12:25:32;5.53;;;1.40;;
81510;SDS011;70931;48.796;8.440;2023-12-20T12:27:59;8.10;;;1.75;;
81510;SDS011;70931;48.796;8.440;2023-12-20T12:30:25;4.75;;;1.58;;
81510;SDS011;70931;48.796;8.440;2023-12-20T12:32:51;4.60;;;1.40;;
81510;SDS011;70931;48.796;8.440;2023-12-20T12:35:17;3.50;;;1.33;;
81510;SDS011;70931;48.796;8.440;2023-12-20T12:37:43;7.35;;;1.88;;
81510;SDS011;70931;48.796;8.440;2023-12-20T12:40:12;3.85;;;1.10;;
81510;SDS011;70931;48.796;8.440;2023-12-20T12:42:39;6.03;;;1.67;;
81510;SDS011;70931;48.796;8.440;2023-12-20T12:45:05;4.75;;;1.38;;
81510;SDS011;70931;48.796;8.440;2023-12-20T12:47:31;5.05;;;1.55;;
81510;SDS011;70931;48.796;8.440;2023-12-20T12:49:56;5.97;;;1.45;;
81510;SDS011;70931;48.796;8.440;2023-12-20T12:52:22;5.83;;;1.73;;
81510;SDS011;70931;48.796;8.440;2023-12-20T12:54:48;6.40;;;1.55;;
81510;SDS011;70931;48.796;8.440;2023-12-20T12:57:14;6.10;;;1.55;;
81510;SDS011;70931;48.796;8.440;2023-12-20T12:59:40;7.65;;;1.73;;
81510;SDS011;70931;48.796;8.440;2023-12-20T13:02:05;4.53;;;1.30;;
81510;SDS011;70931;48.796;8.440;2023-12-20T13:04:30;5.63;;;1.87;;
81510;SDS011;70931;48.796;8.440;2023-12-20T13:06:55;5.10;;;1.53;;
81510;SDS011;70931;48.796;8.440;2023-12-20T13:09:21;3.40;;;1.27;;
81510;SDS011;70931;48.796;8.440;2023-12-20T13:11:46;6.30;;;1.80;;
81510;SDS011;70931;48.796;8.440;2023-12-20T13:14:11;7.23;;;1.73;;
81510;SDS011;70931;48.796;8.440;2023-12-20T13:16:36;7.70;;;1.50;;
81510;SDS011;70931;48.796;8.440;2023-12-20T13:19:02;4.60;;;1.73;;
81510;SDS011;70931;48.796;8.440;2023-12-20T13:21:27;5.30;;;1.50;;
81510;SDS011;70931;48.796;8.440;2023-12-20T13:23:52;4.57;;;1.30;;
81510;SDS011;70931;48.796;8.440;2023-12-20T13:26:17;7.57;;;1.50;;
81510;SDS011;70931;48.796;8.440;2023-12-20T13:28:42;8.73;;;1.73;;
81510;SDS011;70931;48.796;8.440;2023-12-20T13:31:08;4.00;;;1.47;;
81510;SDS011;70931;48.796;8.440;2023-12-20T13:33:33;5.60;;;1.20;;
81510;SDS011;70931;48.796;8.440;2023-12-20T13:35:58;5.03;;;1.47;;
81510;SDS011;70931;48.796;8.440;2023-12-20T13:38:23;6.47;;;1.50;;
81510;SDS011;70931;48.796;8.440;2023-12-20T13:40:49;4.07;;;1.40;;
81510;SDS011;70931;48.796;8.440;2023-12-20T13:43:14;4.37;;;1.53;;
81510;SDS011;70931;48.796;8.440;2023-12-20T13:45:39;5.70;;;1.40;;
81510;SDS011;70931;48.796;8.440;2023-12-20T13:48:04;4.03;;;1.60;;
81510;SDS011;70931;48.796;8.440;2023-12-20T13:50:30;6.93;;;1.73;;
81510;SDS011;70931;48.796;8.440;2023-12-20T13:52:55;7.07;;;2.07;;
81510;SDS011;70931;48.796;8.440;2023-12-20T13:55:20;7.07;;;2.00;;
81510;SDS011;70931;48.796;8.440;2023-12-20T13:57:46;5.07;;;1.50;;
81510;SDS011;70931;48.796;8.440;2023-12-20T14:00:11;5.10;;;1.40;;
81510;SDS011;70931;48.796;8.440;2023-12-20T14:02:37;4.57;;;1.65;;
81510;SDS011;70931;48.796;8.440;2023-12-20T14:05:02;5.70;;;1.57;;
81510;SDS011;70931;48.796;8.440;2023-12-20T14:07:28;9.20;;;2.10;;
81510;SDS011;70931;48.796;8.440;2023-12-20T14:09:53;4.67;;;1.43;;
81510;SDS011;70931;48.796;8.440;2023-12-20T14:12:18;6.43;;;1.80;;
81510;SDS011;70931;48.796;8.440;2023-12-20T14:14:43;4.87;;;1.40;;
81510;SDS011;70931;48.796;8.440;2023-12-20T14:17:08;5.13;;;2.10;;
81510;SDS011;70931;48.796;8.440;2023-12-20T14:19:34;8.67;;;1.97;;
81510;SDS011;70931;48.796;8.440;2023-12-20T14:21:59;6.50;;;2.20;;
81510;SDS011;70931;48.796;8.440;2023-12-20T14:24:24;4.37;;;1.70;;
81510;SDS011;70931;48.796;8.440;2023-12-20T14:26:49;5.20;;;1.60;;
81510;SDS011;70931;48.796;8.440;2023-12-20T14:29:14;5.10;;;1.93;;
81510;SDS011;70931;48.796;8.440;2023-12-20T14:31:40;6.40;;;2.20;;
81510;SDS011;70931;48.796;8.440;2023-12-20T14:34:05;8.00;;;2.00;;
81510;SDS011;70931;48.796;8.440;2023-12-20T14:36:30;7.90;;;1.83;;
81510;SDS011;70931;48.796;8.440;2023-12-20T14:38:55;5.60;;;1.77;;
81510;SDS011;70931;48.796;8.440;2023-12-20T14:41:21;6.05;;;1.65;;
81510;SDS011;70931;48.796;8.440;2023-12-20T14:43:46;9.77;;;1.67;;